sensor_id;sensor_type;location;lat;lon;timestamp;P1;durP1;ratioP1;P2;durP2;ratioP2
6809;SDS011;3443;48.812;9.112;2024-03-07T00:02:10;32.78;;;23.55;;
6809;SDS011;3443;48.812;9.112;2024-03-07T00:04:35;32.67;;;23.67;;
6809;SDS011;3443;48.812;9.112;2024-03-07T00:07:02;35.05;;;23.10;;
6809;SDS011;3443;48.812;9.112;2024-03-07T00:09:29;35.08;;;24.52;;
6809;SDS011;3443;48.812;9.112;2024-03-07T00:11:55;33.65;;;22.85;;
6809;SDS011;3443;48.812;9.112;2024-03-07T00:14:20;34.78;;;24.67;;
6809;SDS011;3443;48.812;9.112;2024-03-07T00:16:46;37.67;;;24.17;;
6809;SDS011;3443;48.812;9.112;2024-03-07T00:19:12;34.17;;;23.70;;
6809;SDS011;3443;48.812;9.112;2024-03-07T00:21:39;37.72;;;25.33;;
6809;SDS011;3443;48.812;9.112;2024-03-07T00:24:05;34.03;;;24.20;;
6809;SDS011;3443;48.812;9.112;2024-03-07T00:26:30;34.17;;;24.50;;
6809;SDS011;3443;48.812;9.112;2024-03-07T00:28:56;35.28;;;24.67;;
6809;SDS011;3443;48.812;9.112;2024-03-07T00:31:23;34.08;;;24.75;;
6809;SDS011;3443;48.812;9.112;2024-03-07T00:33:49;35.03;;;25.50;;
6809;SDS011;3443;48.812;9.112;2024-03-07T00:36:14;39.03;;;26.20;;
6809;SDS011;3443;48.812;9.112;2024-03-07T00:38:40;36.53;;;25.83;;
6809;SDS011;3443;48.812;9.112;2024-03-07T00:41:06;31.95;;;24.63;;
6809;SDS011;3443;48.812;9.112;2024-03-07T00:43:32;35.58;;;24.63;;
6809;SDS011;3443;48.812;9.112;2024-03-07T00:45:58;35.30;;;25.10;;
6809;SDS011;3443;48.812;9.112;2024-03-07T00:48:23;35.53;;;26.33;;
6809;SDS011;3443;48.812;9.112;2024-03-07T00:50:50;36.33;;;24.83;;
6809;SDS011;3443;48.812;9.112;2024-03-07T00:53:15;34.28;;;24.38;;
6809;SDS011;3443;48.812;9.112;2024-03-07T00:55:41;31.42;;;24.77;;
6809;SDS011;3443;48.812;9.112;2024-03-07T00:58:06;33.95;;;24.08;;
6809;SDS011;3443;48.812;9.112;2024-03-07T01:00:32;33.05;;;24.58;;
6809;SDS011;3443;48.812;9.112;2024-03-07T01:02:57;33.25;;;24.70;;
6809;SDS011;3443;48.812;9.112;2024-03-07T01:05:23;33.65;;;24.63;;
6809;SDS011;3443;48.812;9.112;2024-03-07T01:07:49;38.83;;;25.73;;
6809;SDS011;3443;48.812;9.112;2024-03-07T01:10:14;36.70;;;25.80;;
6809;SDS011;3443;48.812;9.112;2024-03-07T01:12:40;35.03;;;25.33;;
6809;SDS011;3443;48.812;9.112;2024-03-07T01:15:08;34.60;;;25.35;;
6809;SDS011;3443;48.812;9.112;2024-03-07T01:17:35;36.42;;;27.17;;
6809;SDS011;3443;48.812;9.112;2024-03-07T01:20:01;36.00;;;27.33;;
6809;SDS011;3443;48.812;9.112;2024-03-07T01:22:27;37.88;;;26.38;;
6809;SDS011;3443;48.812;9.112;2024-03-07T01:24:53;38.13;;;28.80;;
6809;SDS011;3443;48.812;9.112;2024-03-07T01:27:19;34.47;;;26.58;;
6809;SDS011;3443;48.812;9.112;2024-03-07T01:29:45;34.65;;;26.13;;
6809;SDS011;3443;48.812;9.112;2024-03-07T01:32:11;38.72;;;27.80;;
6809;SDS011;3443;48.812;9.112;2024-03-07T01:34:36;38.67;;;28.08;;
6809;SDS011;3443;48.812;9.112;2024-03-07T01:37:02;38.08;;;29.30;;
6809;SDS011;3443;48.812;9.112;2024-03-07T01:39:27;42.45;;;29.50;;
6809;SDS011;3443;48.812;9.112;2024-03-07T01:41:53;36.70;;;28.67;;
6809;SDS011;3443;48.812;9.112;2024-03-07T01:44:19;37.60;;;29.67;;
6809;SDS011;3443;48.812;9.112;2024-03-07T01:46:45;39.35;;;29.33;;
6809;SDS011;3443;48.812;9.112;2024-03-07T01:49:10;41.92;;;32.13;;
6809;SDS011;3443;48.812;9.112;2024-03-07T01:51:36;41.97;;;31.60;;
6809;SDS011;3443;48.812;9.112;2024-03-07T01:54:03;41.45;;;31.48;;
6809;SDS011;3443;48.812;9.112;2024-03-07T01:56:30;39.72;;;29.83;;
6809;SDS011;3443;48.812;9.112;2024-03-07T01:58:55;40.97;;;31.67;;
6809;SDS011;3443;48.812;9.112;2024-03-07T02:01:23;41.33;;;30.90;;
6809;SDS011;3443;48.812;9.112;2024-03-07T02:03:49;38.20;;;29.60;;
6809;SDS011;3443;48.812;9.112;2024-03-07T02:06:14;36.15;;;27.50;;
6809;SDS011;3443;48.812;9.112;2024-03-07T02:08:40;39.65;;;31.02;;
6809;SDS011;3443;48.812;9.112;2024-03-07T02:11:06;35.55;;;27.48;;
6809;SDS011;3443;48.812;9.112;2024-03-07T02:13:34;34.63;;;27.15;;
6809;SDS011;3443;48.812;9.112;2024-03-07T02:16:00;38.80;;;29.25;;
6809;SDS011;3443;48.812;9.112;2024-03-07T02:18:26;36.10;;;28.77;;
6809;SDS011;3443;48.812;9.112;2024-03-07T02:20:52;36.08;;;27.85;;
6809;SDS011;3443;48.812;9.112;2024-03-07T02:23:19;37.53;;;29.92;;
6809;SDS011;3443;48.812;9.112;2024-03-07T02:25:45;40.88;;;30.45;;
6809;SDS011;3443;48.812;9.112;2024-03-07T02:28:11;37.45;;;29.98;;
6809;SDS011;3443;48.812;9.112;2024-03-07T02:30:36;34.00;;;28.38;;
6809;SDS011;3443;48.812;9.112;2024-03-07T02:33:02;36.17;;;27.55;;
6809;SDS011;3443;48.812;9.112;2024-03-07T02:35:34;35.17;;;28.45;;
6809;SDS011;3443;48.812;9.112;2024-03-07T02:38:01;36.33;;;28.80;;
6809;SDS011;3443;48.812;9.112;2024-03-07T02:40:28;36.03;;;27.95;;
6809;SDS011;3443;48.812;9.112;2024-03-07T02:42:53;39.42;;;29.08;;
6809;SDS011;3443;48.812;9.112;2024-03-07T02:45:19;39.15;;;30.38;;
6809;SDS011;3443;48.812;9.112;2024-03-07T02:47:45;36.30;;;28.27;;
6809;SDS011;3443;48.812;9.112;2024-03-07T02:50:11;38.13;;;28.42;;
6809;SDS011;3443;48.812;9.112;2024-03-07T02:52:37;41.08;;;32.00;;
6809;SDS011;3443;48.812;9.112;2024-03-07T02:55:04;40.70;;;29.52;;
6809;SDS011;3443;48.812;9.112;2024-03-07T02:57:30;37.35;;;29.83;;
6809;SDS011;3443;48.812;9.112;2024-03-07T02:59:56;39.55;;;31.65;;
6809;SDS011;3443;48.812;9.112;2024-03-07T03:02:22;39.13;;;29.90;;
6809;SDS011;3443;48.812;9.112;2024-03-07T03:04:48;38.08;;;29.17;;
6809;SDS011;3443;48.812;9.112;2024-03-07T03:07:13;37.00;;;30.27;;
6809;SDS011;3443;48.812;9.112;2024-03-07T03:09:39;39.17;;;30.50;;
6809;SDS011;3443;48.812;9.112;2024-03-07T03:12:08;37.47;;;30.20;;
6809;SDS011;3443;48.812;9.112;2024-03-07T03:14:34;36.95;;;29.38;;
6809;SDS011;3443;48.812;9.112;2024-03-07T03:17:00;36.60;;;29.00;;
6809;SDS011;3443;48.812;9.112;2024-03-07T03:19:26;38.27;;;30.10;;
6809;SDS011;3443;48.812;9.112;2024-03-07T03:21:52;37.60;;;29.52;;
6809;SDS011;3443;48.812;9.112;2024-03-07T03:24:17;39.05;;;28.98;;
6809;SDS011;3443;48.812;9.112;2024-03-07T03:26:43;38.40;;;28.88;;
6809;SDS011;3443;48.812;9.112;2024-03-07T03:29:09;37.08;;;28.80;;
6809;SDS011;3443;48.812;9.112;2024-03-07T03:31:36;35.83;;;27.97;;
6809;SDS011;3443;48.812;9.112;2024-03-07T03:34:02;34.65;;;27.17;;
6809;SDS011;3443;48.812;9.112;2024-03-07T03:36:28;37.50;;;28.70;;
6809;SDS011;3443;48.812;9.112;2024-03-07T03:38:54;35.97;;;27.25;;
6809;SDS011;3443;48.812;9.112;2024-03-07T03:41:20;34.67;;;27.83;;
6809;SDS011;3443;48.812;9.112;2024-03-07T03:43:45;35.00;;;27.30;;
6809;SDS011;3443;48.812;9.112;2024-03-07T03:46:12;36.53;;;27.80;;
6809;SDS011;3443;48.812;9.112;2024-03-07T03:48:39;34.20;;;26.87;;
6809;SDS011;3443;48.812;9.112;2024-03-07T03:51:06;33.10;;;26.95;;
6809;SDS011;3443;48.812;9.112;2024-03-07T03:53:35;39.30;;;27.70;;
6809;SDS011;3443;48.812;9.112;2024-03-07T03:56:01;35.75;;;27.38;;
6809;SDS011;3443;48.812;9.112;2024-03-07T03:58:29;38.03;;;28.90;;
6809;SDS011;3443;48.812;9.112;2024-03-07T04:00:55;38.88;;;30.35;;
6809;SDS011;3443;48.812;9.112;2024-03-07T04:03:22;37.10;;;30.23;;
6809;SDS011;3443;48.812;9.112;2024-03-07T04:05:47;34.55;;;27.48;;
6809;SDS011;3443;48.812;9.112;2024-03-07T04:08:14;36.60;;;28.73;;
6809;SDS011;3443;48.812;9.112;2024-03-07T04:10:39;37.38;;;29.33;;
6809;SDS011;3443;48.812;9.112;2024-03-07T04:13:05;37.23;;;29.27;;
6809;SDS011;3443;48.812;9.112;2024-03-07T04:15:30;37.13;;;28.77;;
6809;SDS011;3443;48.812;9.112;2024-03-07T04:17:57;37.05;;;29.10;;
6809;SDS011;3443;48.812;9.112;2024-03-07T04:20:23;36.57;;;28.90;;
6809;SDS011;3443;48.812;9.112;2024-03-07T04:22:49;33.77;;;28.07;;
6809;SDS011;3443;48.812;9.112;2024-03-07T04:25:15;34.77;;;27.70;;
6809;SDS011;3443;48.812;9.112;2024-03-07T04:27:41;43.47;;;34.10;;
6809;SDS011;3443;48.812;9.112;2024-03-07T04:30:08;42.17;;;32.17;;
6809;SDS011;3443;48.812;9.112;2024-03-07T04:32:37;39.23;;;30.20;;
6809;SDS011;3443;48.812;9.112;2024-03-07T04:35:03;37.40;;;29.40;;
6809;SDS011;3443;48.812;9.112;2024-03-07T04:37:32;38.83;;;28.50;;
6809;SDS011;3443;48.812;9.112;2024-03-07T04:40:05;41.50;;;30.77;;
6809;SDS011;3443;48.812;9.112;2024-03-07T04:42:40;38.20;;;29.63;;
6809;SDS011;3443;48.812;9.112;2024-03-07T04:45:06;39.28;;;29.88;;
6809;SDS011;3443;48.812;9.112;2024-03-07T04:47:32;39.23;;;30.23;;
6809;SDS011;3443;48.812;9.112;2024-03-07T04:49:58;37.23;;;29.03;;
6809;SDS011;3443;48.812;9.112;2024-03-07T04:52:23;37.70;;;29.57;;
6809;SDS011;3443;48.812;9.112;2024-03-07T04:54:49;37.50;;;30.17;;
6809;SDS011;3443;48.812;9.112;2024-03-07T04:57:14;40.00;;;31.70;;
6809;SDS011;3443;48.812;9.112;2024-03-07T04:59:40;37.37;;;29.83;;
6809;SDS011;3443;48.812;9.112;2024-03-07T05:02:05;36.67;;;29.40;;
6809;SDS011;3443;48.812;9.112;2024-03-07T05:04:32;35.13;;;28.17;;
6809;SDS011;3443;48.812;9.112;2024-03-07T05:06:58;37.63;;;30.70;;
6809;SDS011;3443;48.812;9.112;2024-03-07T05:09:23;39.77;;;31.00;;
6809;SDS011;3443;48.812;9.112;2024-03-07T05:11:50;38.23;;;28.70;;
6809;SDS011;3443;48.812;9.112;2024-03-07T05:14:20;40.63;;;31.37;;
6809;SDS011;3443;48.812;9.112;2024-03-07T05:16:46;38.43;;;29.77;;
6809;SDS011;3443;48.812;9.112;2024-03-07T05:19:30;41.03;;;31.43;;
6809;SDS011;3443;48.812;9.112;2024-03-07T05:21:56;39.80;;;31.30;;
6809;SDS011;3443;48.812;9.112;2024-03-07T05:24:21;38.00;;;30.17;;
6809;SDS011;3443;48.812;9.112;2024-03-07T05:26:47;40.80;;;32.87;;
6809;SDS011;3443;48.812;9.112;2024-03-07T05:29:13;39.77;;;30.80;;
6809;SDS011;3443;48.812;9.112;2024-03-07T05:31:38;39.60;;;31.13;;
6809;SDS011;3443;48.812;9.112;2024-03-07T05:34:13;40.23;;;31.83;;
6809;SDS011;3443;48.812;9.112;2024-03-07T05:36:40;38.77;;;30.97;;
6809;SDS011;3443;48.812;9.112;2024-03-07T05:39:11;42.67;;;32.63;;
6809;SDS011;3443;48.812;9.112;2024-03-07T05:41:40;40.43;;;31.63;;
6809;SDS011;3443;48.812;9.112;2024-03-07T05:44:07;40.90;;;32.33;;
6809;SDS011;3443;48.812;9.112;2024-03-07T05:46:40;41.13;;;32.80;;
6809;SDS011;3443;48.812;9.112;2024-03-07T05:49:07;41.93;;;32.53;;
6809;SDS011;3443;48.812;9.112;2024-03-07T05:51:33;37.50;;;30.43;;
6809;SDS011;3443;48.812;9.112;2024-03-07T05:53:59;42.33;;;31.80;;
6809;SDS011;3443;48.812;9.112;2024-03-07T05:56:24;43.23;;;33.90;;
6809;SDS011;3443;48.812;9.112;2024-03-07T05:58:50;40.60;;;31.50;;
6809;SDS011;3443;48.812;9.112;2024-03-07T06:01:16;41.80;;;31.60;;
6809;SDS011;3443;48.812;9.112;2024-03-07T06:03:43;38.63;;;30.67;;
6809;SDS011;3443;48.812;9.112;2024-03-07T06:06:09;43.70;;;32.80;;
6809;SDS011;3443;48.812;9.112;2024-03-07T06:08:36;44.93;;;34.23;;
6809;SDS011;3443;48.812;9.112;2024-03-07T06:11:03;43.57;;;33.00;;
6809;SDS011;3443;48.812;9.112;2024-03-07T06:13:29;43.77;;;33.77;;
6809;SDS011;3443;48.812;9.112;2024-03-07T06:15:55;38.77;;;31.13;;
6809;SDS011;3443;48.812;9.112;2024-03-07T06:18:20;45.90;;;33.50;;
6809;SDS011;3443;48.812;9.112;2024-03-07T06:20:46;82.07;;;43.53;;
6809;SDS011;3443;48.812;9.112;2024-03-07T06:23:13;62.50;;;39.30;;
6809;SDS011;3443;48.812;9.112;2024-03-07T06:25:41;73.73;;;44.33;;
6809;SDS011;3443;48.812;9.112;2024-03-07T06:28:15;63.43;;;39.60;;
6809;SDS011;3443;48.812;9.112;2024-03-07T06:30:42;48.77;;;33.50;;
6809;SDS011;3443;48.812;9.112;2024-03-07T06:33:10;53.07;;;35.37;;
6809;SDS011;3443;48.812;9.112;2024-03-07T06:35:36;43.77;;;32.20;;
6809;SDS011;3443;48.812;9.112;2024-03-07T06:38:05;40.33;;;30.67;;
6809;SDS011;3443;48.812;9.112;2024-03-07T06:40:40;40.17;;;30.80;;
6809;SDS011;3443;48.812;9.112;2024-03-07T06:43:09;37.47;;;29.57;;
6809;SDS011;3443;48.812;9.112;2024-03-07T06:45:36;37.70;;;30.60;;
6809;SDS011;3443;48.812;9.112;2024-03-07T06:48:08;37.23;;;29.33;;
6809;SDS011;3443;48.812;9.112;2024-03-07T06:50:34;37.70;;;27.90;;
6809;SDS011;3443;48.812;9.112;2024-03-07T06:53:01;35.20;;;27.57;;
6809;SDS011;3443;48.812;9.112;2024-03-07T06:55:28;34.83;;;27.33;;
6809;SDS011;3443;48.812;9.112;2024-03-07T06:57:53;37.87;;;29.17;;
6809;SDS011;3443;48.812;9.112;2024-03-07T07:00:19;34.07;;;27.03;;
6809;SDS011;3443;48.812;9.112;2024-03-07T07:02:45;32.10;;;26.30;;
6809;SDS011;3443;48.812;9.112;2024-03-07T07:05:12;35.40;;;27.27;;
6809;SDS011;3443;48.812;9.112;2024-03-07T07:07:46;33.73;;;28.30;;
6809;SDS011;3443;48.812;9.112;2024-03-07T07:10:12;33.67;;;26.20;;
6809;SDS011;3443;48.812;9.112;2024-03-07T07:12:43;32.97;;;26.67;;
6809;SDS011;3443;48.812;9.112;2024-03-07T07:15:13;35.40;;;26.10;;
6809;SDS011;3443;48.812;9.112;2024-03-07T07:17:40;31.67;;;25.00;;
6809;SDS011;3443;48.812;9.112;2024-03-07T07:20:11;33.07;;;25.93;;
6809;SDS011;3443;48.812;9.112;2024-03-07T07:22:43;31.77;;;24.00;;
6809;SDS011;3443;48.812;9.112;2024-03-07T07:25:11;32.07;;;25.57;;
6809;SDS011;3443;48.812;9.112;2024-03-07T07:27:43;33.50;;;25.93;;
6809;SDS011;3443;48.812;9.112;2024-03-07T07:30:13;34.90;;;27.43;;
6809;SDS011;3443;48.812;9.112;2024-03-07T07:32:40;36.23;;;26.10;;
6809;SDS011;3443;48.812;9.112;2024-03-07T07:35:06;33.00;;;26.30;;
6809;SDS011;3443;48.812;9.112;2024-03-07T07:37:36;32.10;;;25.97;;
6809;SDS011;3443;48.812;9.112;2024-03-07T07:40:06;31.87;;;25.07;;
6809;SDS011;3443;48.812;9.112;2024-03-07T07:42:34;28.13;;;23.97;;
6809;SDS011;3443;48.812;9.112;2024-03-07T07:45:04;70.53;;;40.43;;
6809;SDS011;3443;48.812;9.112;2024-03-07T07:47:31;97.27;;;46.50;;
6809;SDS011;3443;48.812;9.112;2024-03-07T07:49:57;103.63;;;49.37;;
6809;SDS011;3443;48.812;9.112;2024-03-07T07:52:23;44.00;;;30.13;;
6809;SDS011;3443;48.812;9.112;2024-03-07T07:54:48;36.93;;;27.83;;
6809;SDS011;3443;48.812;9.112;2024-03-07T07:57:14;34.57;;;26.40;;
6809;SDS011;3443;48.812;9.112;2024-03-07T07:59:40;32.67;;;24.90;;
6809;SDS011;3443;48.812;9.112;2024-03-07T08:02:05;30.13;;;24.57;;
6809;SDS011;3443;48.812;9.112;2024-03-07T08:04:31;31.33;;;24.33;;
6809;SDS011;3443;48.812;9.112;2024-03-07T08:06:57;28.47;;;23.57;;
6809;SDS011;3443;48.812;9.112;2024-03-07T08:09:23;31.47;;;24.57;;
6809;SDS011;3443;48.812;9.112;2024-03-07T08:11:48;28.10;;;23.20;;
6809;SDS011;3443;48.812;9.112;2024-03-07T08:14:15;30.40;;;23.97;;
6809;SDS011;3443;48.812;9.112;2024-03-07T08:16:40;28.10;;;21.83;;
6809;SDS011;3443;48.812;9.112;2024-03-07T08:19:06;28.07;;;23.13;;
6809;SDS011;3443;48.812;9.112;2024-03-07T08:21:33;29.97;;;24.47;;
6809;SDS011;3443;48.812;9.112;2024-03-07T08:23:59;29.17;;;23.73;;
6809;SDS011;3443;48.812;9.112;2024-03-07T08:26:28;28.57;;;22.97;;
6809;SDS011;3443;48.812;9.112;2024-03-07T08:28:54;28.97;;;22.53;;
6809;SDS011;3443;48.812;9.112;2024-03-07T08:31:19;28.60;;;24.33;;
6809;SDS011;3443;48.812;9.112;2024-03-07T08:33:45;29.90;;;23.13;;
6809;SDS011;3443;48.812;9.112;2024-03-07T08:36:11;27.23;;;22.53;;
6809;SDS011;3443;48.812;9.112;2024-03-07T08:38:37;29.57;;;23.23;;
6809;SDS011;3443;48.812;9.112;2024-03-07T08:41:02;30.13;;;23.33;;
6809;SDS011;3443;48.812;9.112;2024-03-07T08:43:28;29.27;;;22.97;;
6809;SDS011;3443;48.812;9.112;2024-03-07T08:45:53;30.27;;;23.60;;
6809;SDS011;3443;48.812;9.112;2024-03-07T08:48:19;34.70;;;24.23;;
6809;SDS011;3443;48.812;9.112;2024-03-07T08:50:44;28.77;;;23.30;;
6809;SDS011;3443;48.812;9.112;2024-03-07T08:53:10;30.00;;;23.43;;
6809;SDS011;3443;48.812;9.112;2024-03-07T08:55:36;31.03;;;23.50;;
6809;SDS011;3443;48.812;9.112;2024-03-07T08:58:01;32.03;;;25.05;;
6809;SDS011;3443;48.812;9.112;2024-03-07T09:00:27;29.40;;;21.90;;
6809;SDS011;3443;48.812;9.112;2024-03-07T09:02:53;29.38;;;22.42;;
6809;SDS011;3443;48.812;9.112;2024-03-07T09:05:22;27.13;;;22.03;;
6809;SDS011;3443;48.812;9.112;2024-03-07T09:07:49;29.60;;;22.40;;
6809;SDS011;3443;48.812;9.112;2024-03-07T09:10:15;32.33;;;21.63;;
6809;SDS011;3443;48.812;9.112;2024-03-07T09:12:41;30.20;;;21.23;;
6809;SDS011;3443;48.812;9.112;2024-03-07T09:15:07;26.98;;;20.60;;
6809;SDS011;3443;48.812;9.112;2024-03-07T09:17:35;26.88;;;21.27;;
6809;SDS011;3443;48.812;9.112;2024-03-07T09:20:01;25.48;;;19.98;;
6809;SDS011;3443;48.812;9.112;2024-03-07T09:22:31;26.90;;;20.52;;
6809;SDS011;3443;48.812;9.112;2024-03-07T09:24:57;27.73;;;20.67;;
6809;SDS011;3443;48.812;9.112;2024-03-07T09:27:23;26.77;;;21.42;;
6809;SDS011;3443;48.812;9.112;2024-03-07T09:29:49;26.42;;;20.80;;
6809;SDS011;3443;48.812;9.112;2024-03-07T09:32:15;26.33;;;20.27;;
6809;SDS011;3443;48.812;9.112;2024-03-07T09:34:42;25.15;;;19.55;;
6809;SDS011;3443;48.812;9.112;2024-03-07T09:37:07;27.98;;;20.60;;
6809;SDS011;3443;48.812;9.112;2024-03-07T09:39:33;24.92;;;20.02;;
6809;SDS011;3443;48.812;9.112;2024-03-07T09:42:02;27.50;;;21.33;;
6809;SDS011;3443;48.812;9.112;2024-03-07T09:44:28;26.45;;;19.58;;
6809;SDS011;3443;48.812;9.112;2024-03-07T09:46:56;26.85;;;21.38;;
6809;SDS011;3443;48.812;9.112;2024-03-07T09:49:24;26.88;;;20.15;;
6809;SDS011;3443;48.812;9.112;2024-03-07T09:51:51;24.38;;;19.80;;
6809;SDS011;3443;48.812;9.112;2024-03-07T09:54:20;28.75;;;20.45;;
6809;SDS011;3443;48.812;9.112;2024-03-07T09:56:49;26.58;;;19.40;;
6809;SDS011;3443;48.812;9.112;2024-03-07T09:59:18;25.92;;;20.02;;
6809;SDS011;3443;48.812;9.112;2024-03-07T10:01:47;26.30;;;19.88;;
6809;SDS011;3443;48.812;9.112;2024-03-07T10:04:16;26.13;;;19.15;;
6809;SDS011;3443;48.812;9.112;2024-03-07T10:06:51;22.88;;;17.92;;
6809;SDS011;3443;48.812;9.112;2024-03-07T10:09:18;24.80;;;18.83;;
6809;SDS011;3443;48.812;9.112;2024-03-07T10:11:55;24.63;;;18.92;;
6809;SDS011;3443;48.812;9.112;2024-03-07T10:14:24;26.15;;;18.75;;
6809;SDS011;3443;48.812;9.112;2024-03-07T10:16:50;27.23;;;19.23;;
6809;SDS011;3443;48.812;9.112;2024-03-07T10:19:15;25.45;;;19.20;;
6809;SDS011;3443;48.812;9.112;2024-03-07T10:21:41;24.33;;;18.70;;
6809;SDS011;3443;48.812;9.112;2024-03-07T10:24:08;26.83;;;19.40;;
6809;SDS011;3443;48.812;9.112;2024-03-07T10:26:37;25.60;;;19.15;;
6809;SDS011;3443;48.812;9.112;2024-03-07T10:29:03;24.85;;;19.63;;
6809;SDS011;3443;48.812;9.112;2024-03-07T10:31:32;26.75;;;18.73;;
6809;SDS011;3443;48.812;9.112;2024-03-07T10:34:01;26.08;;;18.45;;
6809;SDS011;3443;48.812;9.112;2024-03-07T10:36:31;26.90;;;19.27;;
6809;SDS011;3443;48.812;9.112;2024-03-07T10:39:00;26.60;;;19.23;;
6809;SDS011;3443;48.812;9.112;2024-03-07T10:41:49;27.30;;;19.92;;
6809;SDS011;3443;48.812;9.112;2024-03-07T10:44:24;26.80;;;19.75;;
6809;SDS011;3443;48.812;9.112;2024-03-07T10:46:51;27.73;;;19.13;;
6809;SDS011;3443;48.812;9.112;2024-03-07T10:49:19;26.45;;;18.90;;
6809;SDS011;3443;48.812;9.112;2024-03-07T10:51:51;27.70;;;18.98;;
6809;SDS011;3443;48.812;9.112;2024-03-07T10:54:48;26.65;;;18.90;;
6809;SDS011;3443;48.812;9.112;2024-03-07T10:59:53;25.80;;;19.27;;
6809;SDS011;3443;48.812;9.112;2024-03-07T11:05:00;32.03;;;18.75;;
6809;SDS011;3443;48.812;9.112;2024-03-07T11:07:30;32.20;;;19.45;;
6809;SDS011;3443;48.812;9.112;2024-03-07T11:09:56;29.35;;;19.02;;
6809;SDS011;3443;48.812;9.112;2024-03-07T11:12:23;27.58;;;19.67;;
6809;SDS011;3443;48.812;9.112;2024-03-07T11:14:50;25.45;;;19.30;;
6809;SDS011;3443;48.812;9.112;2024-03-07T11:17:17;26.45;;;19.65;;
6809;SDS011;3443;48.812;9.112;2024-03-07T11:19:45;26.73;;;18.67;;
6809;SDS011;3443;48.812;9.112;2024-03-07T11:22:13;25.92;;;18.50;;
6809;SDS011;3443;48.812;9.112;2024-03-07T11:25:01;30.38;;;19.48;;
6809;SDS011;3443;48.812;9.112;2024-03-07T11:27:31;26.38;;;19.45;;
6809;SDS011;3443;48.812;9.112;2024-03-07T11:30:05;25.85;;;19.45;;
6809;SDS011;3443;48.812;9.112;2024-03-07T11:32:34;26.33;;;19.88;;
6809;SDS011;3443;48.812;9.112;2024-03-07T11:35:03;26.77;;;20.23;;
6809;SDS011;3443;48.812;9.112;2024-03-07T11:37:39;26.05;;;19.10;;
6809;SDS011;3443;48.812;9.112;2024-03-07T11:40:08;28.95;;;20.23;;
6809;SDS011;3443;48.812;9.112;2024-03-07T11:42:43;26.95;;;19.40;;
6809;SDS011;3443;48.812;9.112;2024-03-07T11:45:12;26.38;;;19.10;;
6809;SDS011;3443;48.812;9.112;2024-03-07T11:47:49;27.95;;;19.55;;
6809;SDS011;3443;48.812;9.112;2024-03-07T11:50:22;27.60;;;19.30;;
6809;SDS011;3443;48.812;9.112;2024-03-07T11:52:50;27.58;;;19.88;;
6809;SDS011;3443;48.812;9.112;2024-03-07T11:55:17;26.80;;;19.85;;
6809;SDS011;3443;48.812;9.112;2024-03-07T11:57:44;26.60;;;19.40;;
6809;SDS011;3443;48.812;9.112;2024-03-07T12:00:11;28.52;;;20.20;;
6809;SDS011;3443;48.812;9.112;2024-03-07T12:02:38;30.15;;;20.55;;
6809;SDS011;3443;48.812;9.112;2024-03-07T12:05:04;30.60;;;19.80;;
6809;SDS011;3443;48.812;9.112;2024-03-07T12:07:31;29.95;;;20.73;;
6809;SDS011;3443;48.812;9.112;2024-03-07T12:09:58;30.00;;;19.77;;
6809;SDS011;3443;48.812;9.112;2024-03-07T12:12:25;28.30;;;19.48;;
6809;SDS011;3443;48.812;9.112;2024-03-07T12:14:53;28.45;;;20.05;;
6809;SDS011;3443;48.812;9.112;2024-03-07T12:17:19;27.83;;;19.50;;
6809;SDS011;3443;48.812;9.112;2024-03-07T12:19:46;28.95;;;20.13;;
6809;SDS011;3443;48.812;9.112;2024-03-07T12:22:12;27.45;;;19.58;;
6809;SDS011;3443;48.812;9.112;2024-03-07T12:24:38;28.90;;;19.73;;
6809;SDS011;3443;48.812;9.112;2024-03-07T12:27:11;30.77;;;20.45;;
6809;SDS011;3443;48.812;9.112;2024-03-07T12:29:38;24.92;;;19.33;;
6809;SDS011;3443;48.812;9.112;2024-03-07T12:32:07;28.55;;;19.52;;
6809;SDS011;3443;48.812;9.112;2024-03-07T12:34:35;24.85;;;19.55;;
6809;SDS011;3443;48.812;9.112;2024-03-07T12:37:05;31.50;;;20.98;;
6809;SDS011;3443;48.812;9.112;2024-03-07T12:39:34;28.60;;;20.48;;
6809;SDS011;3443;48.812;9.112;2024-03-07T12:42:03;25.77;;;20.45;;
6809;SDS011;3443;48.812;9.112;2024-03-07T12:44:39;28.58;;;21.48;;
6809;SDS011;3443;48.812;9.112;2024-03-07T12:47:11;26.23;;;19.90;;
6809;SDS011;3443;48.812;9.112;2024-03-07T12:49:38;25.17;;;19.38;;
6809;SDS011;3443;48.812;9.112;2024-03-07T12:52:04;28.00;;;20.27;;
6809;SDS011;3443;48.812;9.112;2024-03-07T12:54:30;26.85;;;20.52;;
6809;SDS011;3443;48.812;9.112;2024-03-07T12:56:56;26.80;;;20.17;;
6809;SDS011;3443;48.812;9.112;2024-03-07T12:59:21;26.02;;;19.90;;
6809;SDS011;3443;48.812;9.112;2024-03-07T13:01:49;27.77;;;20.23;;
6809;SDS011;3443;48.812;9.112;2024-03-07T13:04:15;27.73;;;20.50;;
6809;SDS011;3443;48.812;9.112;2024-03-07T13:06:40;28.70;;;21.75;;
6809;SDS011;3443;48.812;9.112;2024-03-07T13:09:09;28.35;;;20.70;;
6809;SDS011;3443;48.812;9.112;2024-03-07T13:11:37;25.38;;;20.13;;
6809;SDS011;3443;48.812;9.112;2024-03-07T13:14:06;28.70;;;20.33;;
6809;SDS011;3443;48.812;9.112;2024-03-07T13:16:32;28.38;;;20.83;;
6809;SDS011;3443;48.812;9.112;2024-03-07T13:18:59;28.08;;;21.17;;
6809;SDS011;3443;48.812;9.112;2024-03-07T13:21:25;28.92;;;20.55;;
6809;SDS011;3443;48.812;9.112;2024-03-07T13:23:52;26.58;;;20.23;;
6809;SDS011;3443;48.812;9.112;2024-03-07T13:26:20;25.08;;;19.77;;
6809;SDS011;3443;48.812;9.112;2024-03-07T13:28:50;30.35;;;22.08;;
6809;SDS011;3443;48.812;9.112;2024-03-07T13:31:16;30.25;;;21.35;;
6809;SDS011;3443;48.812;9.112;2024-03-07T13:33:42;27.73;;;20.60;;
6809;SDS011;3443;48.812;9.112;2024-03-07T13:36:08;30.23;;;21.45;;
6809;SDS011;3443;48.812;9.112;2024-03-07T13:38:34;29.88;;;21.73;;
6809;SDS011;3443;48.812;9.112;2024-03-07T13:41:00;28.88;;;21.33;;
6809;SDS011;3443;48.812;9.112;2024-03-07T13:43:28;27.27;;;21.60;;
6809;SDS011;3443;48.812;9.112;2024-03-07T13:45:55;25.30;;;20.05;;
6809;SDS011;3443;48.812;9.112;2024-03-07T13:48:21;25.73;;;20.08;;
6809;SDS011;3443;48.812;9.112;2024-03-07T13:50:47;28.73;;;21.25;;
6809;SDS011;3443;48.812;9.112;2024-03-07T13:53:19;25.45;;;19.52;;
6809;SDS011;3443;48.812;9.112;2024-03-07T13:59:26;27.08;;;20.85;;
6809;SDS011;3443;48.812;9.112;2024-03-07T14:04:38;28.65;;;20.70;;
6809;SDS011;3443;48.812;9.112;2024-03-07T14:24:16;29.17;;;21.70;;
6809;SDS011;3443;48.812;9.112;2024-03-07T14:33:00;29.52;;;22.42;;
6809;SDS011;3443;48.812;9.112;2024-03-07T14:36:13;31.90;;;22.45;;
6809;SDS011;3443;48.812;9.112;2024-03-07T14:44:21;32.92;;;23.67;;
6809;SDS011;3443;48.812;9.112;2024-03-07T14:46:48;32.03;;;23.60;;
6809;SDS011;3443;48.812;9.112;2024-03-07T14:49:18;28.75;;;22.42;;
6809;SDS011;3443;48.812;9.112;2024-03-07T14:51:44;33.33;;;22.67;;
6809;SDS011;3443;48.812;9.112;2024-03-07T14:54:12;29.40;;;21.55;;
6809;SDS011;3443;48.812;9.112;2024-03-07T14:56:37;31.02;;;22.92;;
6809;SDS011;3443;48.812;9.112;2024-03-07T14:59:03;30.25;;;22.33;;
6809;SDS011;3443;48.812;9.112;2024-03-07T15:01:31;28.33;;;21.58;;
6809;SDS011;3443;48.812;9.112;2024-03-07T15:03:59;32.72;;;24.35;;
6809;SDS011;3443;48.812;9.112;2024-03-07T15:06:25;32.03;;;23.02;;
6809;SDS011;3443;48.812;9.112;2024-03-07T15:08:51;33.75;;;23.55;;
6809;SDS011;3443;48.812;9.112;2024-03-07T15:11:37;33.33;;;23.02;;
6809;SDS011;3443;48.812;9.112;2024-03-07T15:14:07;31.00;;;23.33;;
6809;SDS011;3443;48.812;9.112;2024-03-07T15:16:35;27.60;;;21.50;;
6809;SDS011;3443;48.812;9.112;2024-03-07T15:19:06;31.58;;;22.95;;
6809;SDS011;3443;48.812;9.112;2024-03-07T15:21:33;31.30;;;21.95;;
6809;SDS011;3443;48.812;9.112;2024-03-07T15:24:00;32.55;;;22.73;;
6809;SDS011;3443;48.812;9.112;2024-03-07T15:26:26;30.67;;;22.23;;
6809;SDS011;3443;48.812;9.112;2024-03-07T15:28:52;34.55;;;22.85;;
6809;SDS011;3443;48.812;9.112;2024-03-07T15:31:19;26.95;;;21.30;;